sensor_id;sensor_type;location;lat;lon;timestamp;pressure;altitude;pressure_sealevel;temperature;humidity
75086;BME280;63663;0.000;0.000;2022-11-20T00:01:33;100516.59;;;7.09;41.14
75086;BME280;63663;0.000;0.000;2022-11-20T00:03:58;100513.88;;;7.09;41.15
75086;BME280;63663;0.000;0.000;2022-11-20T00:06:23;100515.78;;;7.08;41.32
75086;BME280;63663;0.000;0.000;2022-11-20T00:08:48;100530.44;;;7.12;41.03
75086;BME280;63663;0.000;0.000;2022-11-20T00:11:17;100519.53;;;7.07;41.33
75086;BME280;63663;0.000;0.000;2022-11-20T00:13:43;100526.84;;;7.07;41.06
75086;BME280;63663;0.000;0.000;2022-11-20T00:16:09;100521.69;;;7.05;40.87
75086;BME280;63663;0.000;0.000;2022-11-20T00:18:34;100508.16;;;7.05;41.20
75086;BME280;63663;0.000;0.000;2022-11-20T00:21:04;100510.59;;;7.07;41.04
75086;BME280;63663;0.000;0.000;2022-11-20T00:23:30;100508.41;;;7.04;41.12
75086;BME280;63663;0.000;0.000;2022-11-20T00:25:55;100508.66;;;7.02;41.01
75086;BME280;63663;0.000;0.000;2022-11-20T00:28:20;100508.66;;;7.02;41.05
75086;BME280;63663;0.000;0.000;2022-11-20T00:30:45;100507.28;;;7.00;41.13
75086;BME280;63663;0.000;0.000;2022-11-20T00:33:10;100495.69;;;7.04;41.11
75086;BME280;63663;0.000;0.000;2022-11-20T00:35:36;100499.72;;;7.02;40.83
75086;BME280;63663;0.000;0.000;2022-11-20T00:38:01;100491.84;;;7.00;41.07
75086;BME280;63663;0.000;0.000;2022-11-20T00:40:26;100505.13;;;7.02;41.22
75086;BME280;63663;0.000;0.000;2022-11-20T00:42:51;100496.69;;;6.98;40.89
75086;BME280;63663;0.000;0.000;2022-11-20T00:45:16;100494.81;;;6.99;40.87
75086;BME280;63663;0.000;0.000;2022-11-20T00:47:41;100487.75;;;6.98;40.94
75086;BME280;63663;0.000;0.000;2022-11-20T00:50:07;100494.19;;;6.92;40.90
75086;BME280;63663;0.000;0.000;2022-11-20T00:52:32;100493.91;;;6.93;40.96
75086;BME280;63663;0.000;0.000;2022-11-20T00:54:57;100497.72;;;6.92;40.90
75086;BME280;63663;0.000;0.000;2022-11-20T00:57:22;100493.03;;;6.87;40.77
75086;BME280;63663;0.000;0.000;2022-11-20T00:59:47;100492.78;;;6.89;40.75
75086;BME280;63663;0.000;0.000;2022-11-20T01:02:12;100492.31;;;6.92;40.90
75086;BME280;63663;0.000;0.000;2022-11-20T01:04:38;100491.97;;;6.88;41.12
75086;BME280;63663;0.000;0.000;2022-11-20T01:07:03;100493.78;;;6.83;40.92
75086;BME280;63663;0.000;0.000;2022-11-20T01:09:28;100484.09;;;6.87;40.97
75086;BME280;63663;0.000;0.000;2022-11-20T01:11:53;100490.25;;;6.82;40.98
75086;BME280;63663;0.000;0.000;2022-11-20T01:14:19;100489.44;;;6.82;40.96
75086;BME280;63663;0.000;0.000;2022-11-20T01:16:48;100490.00;;;6.84;40.78
75086;BME280;63663;0.000;0.000;2022-11-20T01:19:15;100489.44;;;6.82;40.89
75086;BME280;63663;0.000;0.000;2022-11-20T01:21:41;100486.19;;;6.80;40.75
75086;BME280;63663;0.000;0.000;2022-11-20T01:24:07;100478.56;;;6.77;40.70
75086;BME280;63663;0.000;0.000;2022-11-20T01:26:34;100491.00;;;6.78;40.76
75086;BME280;63663;0.000;0.000;2022-11-20T01:28:59;100488.59;;;6.81;41.16
75086;BME280;63663;0.000;0.000;2022-11-20T01:33:54;100489.69;;;6.80;40.77
75086;BME280;63663;0.000;0.000;2022-11-20T01:36:21;100485.59;;;6.78;40.92
75086;BME280;63663;0.000;0.000;2022-11-20T01:38:46;100471.25;;;6.77;40.76
75086;BME280;63663;0.000;0.000;2022-11-20T01:41:13;100473.97;;;6.77;40.66
75086;BME280;63663;0.000;0.000;2022-11-20T01:43:39;100469.38;;;6.78;40.62
75086;BME280;63663;0.000;0.000;2022-11-20T01:50:57;100470.59;;;6.70;40.73
75086;BME280;63663;0.000;0.000;2022-11-20T01:53:24;100476.84;;;6.71;40.80
75086;BME280;63663;0.000;0.000;2022-11-20T01:55:51;100479.78;;;6.69;40.92
75086;BME280;63663;0.000;0.000;2022-11-20T01:58:18;100476.53;;;6.67;40.63
75086;BME280;63663;0.000;0.000;2022-11-20T02:00:46;100470.88;;;6.69;40.56
75086;BME280;63663;0.000;0.000;2022-11-20T02:03:18;100470.22;;;6.62;40.71
75086;BME280;63663;0.000;0.000;2022-11-20T02:08:21;100463.56;;;6.69;40.43
75086;BME280;63663;0.000;0.000;2022-11-20T02:10:46;100452.34;;;6.61;40.67
75086;BME280;63663;0.000;0.000;2022-11-20T02:13:11;100458.09;;;6.64;40.78
75086;BME280;63663;0.000;0.000;2022-11-20T02:15:37;100465.13;;;6.65;40.76
75086;BME280;63663;0.000;0.000;2022-11-20T02:18:02;100457.28;;;6.64;40.71
75086;BME280;63663;0.000;0.000;2022-11-20T02:20:27;100454.56;;;6.64;40.58
75086;BME280;63663;0.000;0.000;2022-11-20T02:22:57;100450.94;;;6.58;40.35
75086;BME280;63663;0.000;0.000;2022-11-20T02:25:24;100445.06;;;6.61;40.76
75086;BME280;63663;0.000;0.000;2022-11-20T02:27:51;100453.75;;;6.63;40.31
75086;BME280;63663;0.000;0.000;2022-11-20T02:30:17;100452.59;;;6.59;40.54
75086;BME280;63663;0.000;0.000;2022-11-20T02:32:42;100449.00;;;6.53;40.84
75086;BME280;63663;0.000;0.000;2022-11-20T02:37:45;100443.13;;;6.57;40.31
75086;BME280;63663;0.000;0.000;2022-11-20T02:40:12;100446.38;;;6.59;40.42
75086;BME280;63663;0.000;0.000;2022-11-20T02:42:37;100433.38;;;6.56;40.46
75086;BME280;63663;0.000;0.000;2022-11-20T02:45:05;100436.88;;;6.56;40.66
75086;BME280;63663;0.000;0.000;2022-11-20T02:47:31;100430.91;;;6.54;40.38
75086;BME280;63663;0.000;0.000;2022-11-20T02:49:56;100434.59;;;6.48;40.40
75086;BME280;63663;0.000;0.000;2022-11-20T02:52:21;100436.22;;;6.49;40.31
75086;BME280;63663;0.000;0.000;2022-11-20T02:54:46;100427.31;;;6.48;40.41
75086;BME280;63663;0.000;0.000;2022-11-20T02:57:11;100421.31;;;6.46;40.67
75086;BME280;63663;0.000;0.000;2022-11-20T02:59:37;100419.72;;;6.45;40.35
75086;BME280;63663;0.000;0.000;2022-11-20T03:02:02;100415.66;;;6.48;40.52
75086;BME280;63663;0.000;0.000;2022-11-20T03:04:27;100415.59;;;6.43;40.64
75086;BME280;63663;0.000;0.000;2022-11-20T03:06:52;100421.00;;;6.43;39.96
75086;BME280;63663;0.000;0.000;2022-11-20T03:09:17;100412.31;;;6.41;39.96
75086;BME280;63663;0.000;0.000;2022-11-20T03:11:42;100416.91;;;6.40;40.06
75086;BME280;63663;0.000;0.000;2022-11-20T03:14:08;100413.97;;;6.42;40.16
75086;BME280;63663;0.000;0.000;2022-11-20T03:16:33;100415.84;;;6.41;40.49
75086;BME280;63663;0.000;0.000;2022-11-20T03:18:58;100407.41;;;6.38;40.43
75086;BME280;63663;0.000;0.000;2022-11-20T03:21:23;100408.00;;;6.40;40.11
75086;BME280;63663;0.000;0.000;2022-11-20T03:23:48;100403.06;;;6.37;40.38
75086;BME280;63663;0.000;0.000;2022-11-20T03:26:18;100405.78;;;6.37;40.11
75086;BME280;63663;0.000;0.000;2022-11-20T03:28:47;100398.19;;;6.34;40.45
75086;BME280;63663;0.000;0.000;2022-11-20T03:31:13;100404.41;;;6.34;40.32
75086;BME280;63663;0.000;0.000;2022-11-20T03:33:39;100397.09;;;6.35;40.28
75086;BME280;63663;0.000;0.000;2022-11-20T03:36:05;100396.84;;;6.36;40.22
75086;BME280;63663;0.000;0.000;2022-11-20T03:38:30;100402.00;;;6.38;40.27
75086;BME280;63663;0.000;0.000;2022-11-20T03:41:03;100391.19;;;6.38;39.79
75086;BME280;63663;0.000;0.000;2022-11-20T03:43:28;100399.72;;;6.30;40.13
75086;BME280;63663;0.000;0.000;2022-11-20T03:45:53;100397.28;;;6.28;39.96
75086;BME280;63663;0.000;0.000;2022-11-20T03:48:19;100395.63;;;6.27;40.32
75086;BME280;63663;0.000;0.000;2022-11-20T03:50:44;100390.81;;;6.29;39.84
75086;BME280;63663;0.000;0.000;2022-11-20T03:53:09;100385.66;;;6.28;39.96
75086;BME280;63663;0.000;0.000;2022-11-20T03:55:34;100388.28;;;6.23;40.09
75086;BME280;63663;0.000;0.000;2022-11-20T03:57:59;100392.06;;;6.22;39.97
75086;BME280;63663;0.000;0.000;2022-11-20T04:00:24;100388.28;;;6.23;40.05
75086;BME280;63663;0.000;0.000;2022-11-20T04:02:49;100395.63;;;6.27;40.02
75086;BME280;63663;0.000;0.000;2022-11-20T04:05:15;100389.06;;;6.23;40.17
75086;BME280;63663;0.000;0.000;2022-11-20T04:07:40;100387.47;;;6.22;39.97
75086;BME280;63663;0.000;0.000;2022-11-20T04:10:05;100390.41;;;6.21;40.33
75086;BME280;63663;0.000;0.000;2022-11-20T04:12:33;100393.94;;;6.21;39.86
75086;BME280;63663;0.000;0.000;2022-11-20T04:14:58;100394.75;;;6.22;39.71
75086;BME280;63663;0.000;0.000;2022-11-20T04:17:24;100400.66;;;6.18;40.00
75086;BME280;63663;0.000;0.000;2022-11-20T04:19:49;100399.25;;;6.16;40.02
75086;BME280;63663;0.000;0.000;2022-11-20T04:22:14;100402.78;;;6.16;39.90
75086;BME280;63663;0.000;0.000;2022-11-20T04:24:39;100405.97;;;6.13;39.92
75086;BME280;63663;0.000;0.000;2022-11-20T04:27:04;100403.25;;;6.13;40.17
75086;BME280;63663;0.000;0.000;2022-11-20T04:29:29;100402.44;;;6.13;40.26
75086;BME280;63663;0.000;0.000;2022-11-20T04:31:55;100393.03;;;6.15;39.83
75086;BME280;63663;0.000;0.000;2022-11-20T04:34:20;100391.91;;;6.11;40.00
75086;BME280;63663;0.000;0.000;2022-11-20T04:36:45;100400.81;;;6.12;39.86
75086;BME280;63663;0.000;0.000;2022-11-20T04:39:13;100393.28;;;6.14;39.85
75086;BME280;63663;0.000;0.000;2022-11-20T04:41:39;100393.78;;;6.11;39.89
75086;BME280;63663;0.000;0.000;2022-11-20T04:44:04;100393.53;;;6.12;39.85
75086;BME280;63663;0.000;0.000;2022-11-20T04:46:31;100387.56;;;6.10;39.87
75086;BME280;63663;0.000;0.000;2022-11-20T04:48:56;100388.63;;;6.09;39.69
75086;BME280;63663;0.000;0.000;2022-11-20T04:51:22;100388.53;;;6.04;39.64
75086;BME280;63663;0.000;0.000;2022-11-20T04:53:47;100393.69;;;6.06;40.03
75086;BME280;63663;0.000;0.000;2022-11-20T04:56:12;100383.72;;;6.06;40.03
75086;BME280;63663;0.000;0.000;2022-11-20T04:58:38;100382.06;;;6.05;39.59
75086;BME280;63663;0.000;0.000;2022-11-20T05:01:04;100384.13;;;5.98;39.71
75086;BME280;63663;0.000;0.000;2022-11-20T05:03:30;100381.19;;;6.00;39.93
75086;BME280;63663;0.000;0.000;2022-11-20T05:05:55;100388.47;;;5.99;39.75
75086;BME280;63663;0.000;0.000;2022-11-20T05:08:20;100387.66;;;5.99;39.82
75086;BME280;63663;0.000;0.000;2022-11-20T05:10:46;100389.03;;;6.01;39.60
75086;BME280;63663;0.000;0.000;2022-11-20T05:13:11;100387.66;;;5.99;40.17
75086;BME280;63663;0.000;0.000;2022-11-20T05:15:36;100393.31;;;5.97;40.11
75086;BME280;63663;0.000;0.000;2022-11-20T05:18:01;100385.09;;;5.92;39.73
75086;BME280;63663;0.000;0.000;2022-11-20T05:20:26;100389.22;;;5.95;40.16
75086;BME280;63663;0.000;0.000;2022-11-20T05:22:52;100394.84;;;5.93;39.90
75086;BME280;63663;0.000;0.000;2022-11-20T05:25:17;100390.28;;;5.94;39.71
75086;BME280;63663;0.000;0.000;2022-11-20T05:27:42;100389.44;;;5.93;39.91
75086;BME280;63663;0.000;0.000;2022-11-20T05:30:07;100394.19;;;5.86;39.96
75086;BME280;63663;0.000;0.000;2022-11-20T05:32:33;100392.78;;;5.83;39.98
75086;BME280;63663;0.000;0.000;2022-11-20T05:34:58;100383.72;;;5.90;40.21
75086;BME280;63663;0.000;0.000;2022-11-20T05:37:23;100390.75;;;5.91;40.25
75086;BME280;63663;0.000;0.000;2022-11-20T05:39:49;100392.09;;;5.88;40.18
75086;BME280;63663;0.000;0.000;2022-11-20T05:42:14;100393.94;;;5.88;40.25
75086;BME280;63663;0.000;0.000;2022-11-20T05:44:39;100390.66;;;5.86;39.84
75086;BME280;63663;0.000;0.000;2022-11-20T05:47:04;100386.91;;;5.87;40.01
75086;BME280;63663;0.000;0.000;2022-11-20T05:49:30;100385.00;;;5.87;40.06
75086;BME280;63663;0.000;0.000;2022-11-20T05:51:55;100376.56;;;5.83;40.39
75086;BME280;63663;0.000;0.000;2022-11-20T05:54:20;100375.28;;;5.86;40.16
75086;BME280;63663;0.000;0.000;2022-11-20T05:56:45;100375.41;;;5.79;40.67
75086;BME280;63663;0.000;0.000;2022-11-20T05:59:10;100367.06;;;5.81;40.48
75086;BME280;63663;0.000;0.000;2022-11-20T06:01:36;100374.94;;;5.82;40.67
75086;BME280;63663;0.000;0.000;2022-11-20T06:04:01;100370.94;;;5.85;40.35
75086;BME280;63663;0.000;0.000;2022-11-20T06:06:26;100363.31;;;5.82;40.45
75086;BME280;63663;0.000;0.000;2022-11-20T06:08:51;100362.09;;;5.73;40.47
75086;BME280;63663;0.000;0.000;2022-11-20T06:11:17;100367.00;;;5.76;40.55
75086;BME280;63663;0.000;0.000;2022-11-20T06:13:42;100360.78;;;5.75;40.43
75086;BME280;63663;0.000;0.000;2022-11-20T06:16:08;100361.59;;;5.76;40.40
75086;BME280;63663;0.000;0.000;2022-11-20T06:18:33;100361.59;;;5.76;40.66
75086;BME280;63663;0.000;0.000;2022-11-20T06:20:59;100375.13;;;5.76;40.38
75086;BME280;63663;0.000;0.000;2022-11-20T06:23:25;100371.75;;;5.69;40.84
75086;BME280;63663;0.000;0.000;2022-11-20T06:25:50;100376.66;;;5.72;40.81
75086;BME280;63663;0.000;0.000;2022-11-20T06:28:15;100378.06;;;5.74;40.32
75086;BME280;63663;0.000;0.000;2022-11-20T06:30:44;100363.63;;;5.69;40.73
75086;BME280;63663;0.000;0.000;2022-11-20T06:33:09;100360.34;;;5.67;40.60
75086;BME280;63663;0.000;0.000;2022-11-20T06:35:34;100362.09;;;5.73;40.49
75086;BME280;63663;0.000;0.000;2022-11-20T06:38:00;100357.19;;;5.70;40.52
75086;BME280;63663;0.000;0.000;2022-11-20T06:40:25;100357.34;;;5.63;40.70
75086;BME280;63663;0.000;0.000;2022-11-20T06:42:50;100360.06;;;5.63;40.73
75086;BME280;63663;0.000;0.000;2022-11-20T06:45:15;100367.63;;;5.66;40.70
75086;BME280;63663;0.000;0.000;2022-11-20T06:47:40;100366.81;;;5.66;40.84
75086;BME280;63663;0.000;0.000;2022-11-20T06:50:05;100367.63;;;5.66;40.76
75086;BME280;63663;0.000;0.000;2022-11-20T06:52:31;100361.09;;;5.62;40.89
75086;BME280;63663;0.000;0.000;2022-11-20T06:54:56;100363.34;;;5.65;40.62
75086;BME280;63663;0.000;0.000;2022-11-20T06:57:21;100372.22;;;5.66;40.82
75086;BME280;63663;0.000;0.000;2022-11-20T06:59:46;100364.28;;;5.59;40.73
75086;BME280;63663;0.000;0.000;2022-11-20T07:02:11;100362.88;;;5.57;40.71
75086;BME280;63663;0.000;0.000;2022-11-20T07:04:37;100373.22;;;5.60;41.32
75086;BME280;63663;0.000;0.000;2022-11-20T07:07:02;100375.56;;;5.56;40.92
75086;BME280;63663;0.000;0.000;2022-11-20T07:09:27;100382.38;;;5.59;40.85
75086;BME280;63663;0.000;0.000;2022-11-20T07:11:53;100381.78;;;5.57;40.87
75086;BME280;63663;0.000;0.000;2022-11-20T07:14:18;100378.59;;;5.60;40.91
75086;BME280;63663;0.000;0.000;2022-11-20T07:16:43;100383.44;;;5.58;41.52
75086;BME280;63663;0.000;0.000;2022-11-20T07:19:08;100382.59;;;5.57;40.99
75086;BME280;63663;0.000;0.000;2022-11-20T07:21:33;100389.31;;;5.55;40.98
75086;BME280;63663;0.000;0.000;2022-11-20T07:23:58;100388.00;;;5.57;41.20
75086;BME280;63663;0.000;0.000;2022-11-20T07:26:23;100390.88;;;5.51;41.09
75086;BME280;63663;0.000;0.000;2022-11-20T07:28:49;100385.00;;;5.54;41.25
75086;BME280;63663;0.000;0.000;2022-11-20T07:31:14;100386.31;;;5.51;41.56
75086;BME280;63663;0.000;0.000;2022-11-20T07:33:39;100383.84;;;5.50;41.35
75086;BME280;63663;0.000;0.000;2022-11-20T07:36:04;100379.03;;;5.52;41.16
75086;BME280;63663;0.000;0.000;2022-11-20T07:38:30;100377.84;;;5.47;42.00
75086;BME280;63663;0.000;0.000;2022-11-20T07:40:55;100384.47;;;5.40;41.71
75086;BME280;63663;0.000;0.000;2022-11-20T07:43:21;100382.78;;;5.51;41.72
75086;BME280;63663;0.000;0.000;2022-11-20T07:45:46;100386.78;;;5.48;42.07
75086;BME280;63663;0.000;0.000;2022-11-20T07:48:11;100393.16;;;5.42;42.21
75086;BME280;63663;0.000;0.000;2022-11-20T07:50:36;100389.13;;;5.44;41.83
75086;BME280;63663;0.000;0.000;2022-11-20T07:53:02;100388.31;;;5.44;42.11
75086;BME280;63663;0.000;0.000;2022-11-20T07:55:27;100391.25;;;5.42;42.31
75086;BME280;63663;0.000;0.000;2022-11-20T07:57:55;100391.34;;;5.47;41.81
75086;BME280;63663;0.000;0.000;2022-11-20T08:00:21;100386.78;;;5.48;42.06
75086;BME280;63663;0.000;0.000;2022-11-20T08:02:46;100381.13;;;5.50;42.23
75086;BME280;63663;0.000;0.000;2022-11-20T08:05:11;100380.56;;;5.47;42.40
75086;BME280;63663;0.000;0.000;2022-11-20T08:07:37;100379.41;;;5.43;41.96
75086;BME280;63663;0.000;0.000;2022-11-20T08:10:02;100383.75;;;5.44;42.54
75086;BME280;63663;0.000;0.000;2022-11-20T08:12:27;100385.63;;;5.44;42.37
75086;BME280;63663;0.000;0.000;2022-11-20T08:14:52;100383.75;;;5.44;42.13
75086;BME280;63663;0.000;0.000;2022-11-20T08:17:18;100377.44;;;5.39;42.52
75086;BME280;63663;0.000;0.000;2022-11-20T08:19:43;100374.50;;;5.40;42.60
75086;BME280;63663;0.000;0.000;2022-11-20T08:22:08;100371.81;;;5.40;42.27
75086;BME280;63663;0.000;0.000;2022-11-20T08:24:33;100364.84;;;5.44;42.57
75086;BME280;63663;0.000;0.000;2022-11-20T08:26:58;100378.34;;;5.44;42.57
75086;BME280;63663;0.000;0.000;2022-11-20T08:29:23;100367.78;;;5.43;42.83
75086;BME280;63663;0.000;0.000;2022-11-20T08:31:49;100370.47;;;5.43;42.86
75086;BME280;63663;0.000;0.000;2022-11-20T08:34:14;100372.34;;;5.42;42.69
75086;BME280;63663;0.000;0.000;2022-11-20T08:36:39;100368.53;;;5.38;43.22
75086;BME280;63663;0.000;0.000;2022-11-20T08:39:04;100369.94;;;5.41;42.86
75086;BME280;63663;0.000;0.000;2022-11-20T08:41:29;100374.50;;;5.40;43.17
75086;BME280;63663;0.000;0.000;2022-11-20T08:43:59;100381.28;;;5.43;43.16
75086;BME280;63663;0.000;0.000;2022-11-20T08:46:24;100377.69;;;5.37;43.48
75086;BME280;63663;0.000;0.000;2022-11-20T08:48:50;100374.75;;;5.39;43.43
75086;BME280;63663;0.000;0.000;2022-11-20T08:51:16;100369.34;;;5.39;43.45
75086;BME280;63663;0.000;0.000;2022-11-20T08:53:41;100371.00;;;5.40;43.59
75086;BME280;63663;0.000;0.000;2022-11-20T08:56:06;100373.19;;;5.43;43.71
75086;BME280;63663;0.000;0.000;2022-11-20T08:58:31;100364.78;;;5.39;44.35
75086;BME280;63663;0.000;0.000;2022-11-20T09:00:57;100372.28;;;5.37;44.56
75086;BME280;63663;0.000;0.000;2022-11-20T09:03:22;100373.94;;;5.38;44.60
75086;BME280;63663;0.000;0.000;2022-11-20T09:05:47;100379.81;;;5.35;44.79
75086;BME280;63663;0.000;0.000;2022-11-20T09:08:13;100379.31;;;5.38;44.43
75086;BME280;63663;0.000;0.000;2022-11-20T09:10:38;100375.47;;;5.34;44.70
75086;BME280;63663;0.000;0.000;2022-11-20T09:13:03;100375.22;;;5.36;44.28
75086;BME280;63663;0.000;0.000;2022-11-20T09:15:28;100376.53;;;5.33;44.75
75086;BME280;63663;0.000;0.000;2022-11-20T09:17:54;100376.22;;;5.30;45.07
75086;BME280;63663;0.000;0.000;2022-11-20T09:20:19;100375.69;;;5.33;44.88
75086;BME280;63663;0.000;0.000;2022-11-20T09:22:45;100370.94;;;5.23;45.12
75086;BME280;63663;0.000;0.000;2022-11-20T09:25:10;100356.16;;;5.26;44.92
75086;BME280;63663;0.000;0.000;2022-11-20T09:27:35;100371.63;;;5.30;45.33
75086;BME280;63663;0.000;0.000;2022-11-20T09:30:00;100364.09;;;5.32;45.57
75086;BME280;63663;0.000;0.000;2022-11-20T09:32:26;100363.03;;;5.33;45.52
75086;BME280;63663;0.000;0.000;2022-11-20T09:34:51;100360.56;;;5.32;45.58
75086;BME280;63663;0.000;0.000;2022-11-20T09:37:16;100368.19;;;5.35;45.43
75086;BME280;63663;0.000;0.000;2022-11-20T09:39:41;100362.78;;;5.35;45.42
75086;BME280;63663;0.000;0.000;2022-11-20T09:52:58;100341.44;;;5.17;46.66
75086;BME280;63663;0.000;0.000;2022-11-20T09:55:29;100331.78;;;5.21;46.50
75086;BME280;63663;0.000;0.000;2022-11-20T09:57:55;100318.28;;;5.21;46.16
75086;BME280;63663;0.000;0.000;2022-11-20T10:00:22;100315.25;;;5.17;47.06
75086;BME280;63663;0.000;0.000;2022-11-20T10:02:49;100318.28;;;5.21;46.85
75086;BME280;63663;0.000;0.000;2022-11-20T10:05:25;100319.59;;;5.18;46.81
75086;BME280;63663;0.000;0.000;2022-11-20T10:10:17;100326.47;;;5.26;46.70
75086;BME280;63663;0.000;0.000;2022-11-20T10:25:38;100326.00;;;5.29;47.33
75086;BME280;63663;0.000;0.000;2022-11-20T10:28:09;100318.03;;;5.22;48.00
75086;BME280;63663;0.000;0.000;2022-11-20T10:30:43;100310.03;;;5.27;47.34
75086;BME280;63663;0.000;0.000;2022-11-20T10:33:21;100309.22;;;5.27;47.84
75086;BME280;63663;0.000;0.000;2022-11-20T10:38:34;100293.50;;;5.24;47.43
75086;BME280;63663;0.000;0.000;2022-11-20T10:41:01;100298.50;;;5.32;47.96
75086;BME280;63663;0.000;0.000;2022-11-20T10:43:33;100296.84;;;5.31;47.77
75086;BME280;63663;0.000;0.000;2022-11-20T10:46:00;100304.00;;;5.37;47.70
75086;BME280;63663;0.000;0.000;2022-11-20T10:48:27;100302.69;;;5.39;47.90
75086;BME280;63663;0.000;0.000;2022-11-20T10:55:50;100283.69;;;5.34;47.98
75086;BME280;63663;0.000;0.000;2022-11-20T11:00:43;100281.34;;;5.38;47.64
75086;BME280;63663;0.000;0.000;2022-11-20T11:03:17;100277.81;;;5.37;48.19
75086;BME280;63663;0.000;0.000;2022-11-20T11:05:45;100269.38;;;5.34;48.36
75086;BME280;63663;0.000;0.000;2022-11-20T11:08:15;100264.47;;;5.31;48.76
75086;BME280;63663;0.000;0.000;2022-11-20T11:13:07;100271.50;;;5.32;48.43
75086;BME280;63663;0.000;0.000;2022-11-20T11:15:39;100263.75;;;5.35;48.98
75086;BME280;63663;0.000;0.000;2022-11-20T11:18:05;100267.28;;;5.36;49.13
75086;BME280;63663;0.000;0.000;2022-11-20T11:20:33;100267.84;;;5.38;48.77
75086;BME280;63663;0.000;0.000;2022-11-20T11:22:58;100261.38;;;5.39;48.94
75086;BME280;63663;0.000;0.000;2022-11-20T11:25:30;100259.75;;;5.38;48.77
75086;BME280;63663;0.000;0.000;2022-11-20T11:27:57;100247.13;;;5.43;48.57
75086;BME280;63663;0.000;0.000;2022-11-20T11:30:24;100242.75;;;5.37;49.33
75086;BME280;63663;0.000;0.000;2022-11-20T11:32:49;100246.59;;;5.41;49.33
75086;BME280;63663;0.000;0.000;2022-11-20T11:35:27;100248.19;;;5.42;49.06
75086;BME280;63663;0.000;0.000;2022-11-20T11:38:04;100244.72;;;5.42;49.49
75086;BME280;63663;0.000;0.000;2022-11-20T11:40:30;100240.91;;;5.43;49.55
75086;BME280;63663;0.000;0.000;2022-11-20T11:42:57;100246.06;;;5.44;49.02
75086;BME280;63663;0.000;0.000;2022-11-20T11:45:23;100249.84;;;5.43;49.15
75086;BME280;63663;0.000;0.000;2022-11-20T11:47:49;100229.97;;;5.50;49.18
75086;BME280;63663;0.000;0.000;2022-11-20T11:50:18;100240.19;;;5.47;49.35
75086;BME280;63663;0.000;0.000;2022-11-20T11:52:51;100236.91;;;5.45;49.39
75086;BME280;63663;0.000;0.000;2022-11-20T11:55:29;100223.50;;;5.51;48.92
75086;BME280;63663;0.000;0.000;2022-11-20T11:58:19;100224.91;;;5.53;48.73
75086;BME280;63663;0.000;0.000;2022-11-20T12:00:45;100233.50;;;5.50;49.31
75086;BME280;63663;0.000;0.000;2022-11-20T12:03:14;100230.53;;;5.52;49.13
75086;BME280;63663;0.000;0.000;2022-11-20T12:05:48;100224.09;;;5.53;49.53
75086;BME280;63663;0.000;0.000;2022-11-20T12:13:12;100214.66;;;5.55;49.50
75086;BME280;63663;0.000;0.000;2022-11-20T12:15:40;100214.94;;;5.54;49.60
75086;BME280;63663;0.000;0.000;2022-11-20T12:18:13;100212.78;;;5.56;49.49
75086;BME280;63663;0.000;0.000;2022-11-20T12:20:41;100206.38;;;5.62;49.10
75086;BME280;63663;0.000;0.000;2022-11-20T12:23:18;100204.81;;;5.66;48.91
75086;BME280;63663;0.000;0.000;2022-11-20T12:25:47;100202.09;;;5.66;49.31
75086;BME280;63663;0.000;0.000;2022-11-20T12:28:30;100199.94;;;5.63;49.30
75086;BME280;63663;0.000;0.000;2022-11-20T12:31:18;100195.66;;;5.67;49.40
75086;BME280;63663;0.000;0.000;2022-11-20T12:41:12;100187.06;;;5.70;49.50
75086;BME280;63663;0.000;0.000;2022-11-20T12:43:45;100186.81;;;5.71;49.59
75086;BME280;63663;0.000;0.000;2022-11-20T12:46:30;100186.00;;;5.71;49.19
75086;BME280;63663;0.000;0.000;2022-11-20T12:51:38;100172.00;;;5.74;49.86
75086;BME280;63663;0.000;0.000;2022-11-20T12:59:47;100177.69;;;5.77;49.23
75086;BME280;63663;0.000;0.000;2022-11-20T13:07:11;100178.00;;;5.81;49.26
75086;BME280;63663;0.000;0.000;2022-11-20T13:09:42;100179.66;;;5.82;49.24
75086;BME280;63663;0.000;0.000;2022-11-20T13:12:11;100177.28;;;5.86;49.08
75086;BME280;63663;0.000;0.000;2022-11-20T13:14:46;100165.19;;;5.88;49.31
75086;BME280;63663;0.000;0.000;2022-11-20T13:17:28;100173.00;;;5.90;49.20
75086;BME280;63663;0.000;0.000;2022-11-20T13:19:56;100164.09;;;5.89;49.04
75086;BME280;63663;0.000;0.000;2022-11-20T13:22:24;100153.88;;;5.91;49.41
75086;BME280;63663;0.000;0.000;2022-11-20T13:24:52;100157.09;;;5.88;49.42
75086;BME280;63663;0.000;0.000;2022-11-20T13:27:19;100155.50;;;5.92;49.47
75086;BME280;63663;0.000;0.000;2022-11-20T13:29:47;100149.03;;;5.93;49.07
75086;BME280;63663;0.000;0.000;2022-11-20T13:32:23;100147.47;;;5.97;49.21
75086;BME280;63663;0.000;0.000;2022-11-20T13:34:55;100142.31;;;5.96;49.14
75086;BME280;63663;0.000;0.000;2022-11-20T13:37:24;100133.16;;;5.97;49.85
75086;BME280;63663;0.000;0.000;2022-11-20T13:39:50;100138.28;;;5.98;49.41
75086;BME280;63663;0.000;0.000;2022-11-20T13:47:32;100134.81;;;6.03;49.30
75086;BME280;63663;0.000;0.000;2022-11-20T13:49:57;100130.22;;;6.03;49.47
75086;BME280;63663;0.000;0.000;2022-11-20T13:54:52;100116.47;;;6.05;49.63
75086;BME280;63663;0.000;0.000;2022-11-20T13:57:44;100108.13;;;6.06;49.43
75086;BME280;63663;0.000;0.000;2022-11-20T14:00:18;100096.50;;;6.06;49.20
75086;BME280;63663;0.000;0.000;2022-11-20T14:02:44;100097.06;;;6.08;49.41
75086;BME280;63663;0.000;0.000;2022-11-20T14:05:20;100096.25;;;6.07;49.81
75086;BME280;63663;0.000;0.000;2022-11-20T14:07:46;100093.03;;;6.10;49.51
75086;BME280;63663;0.000;0.000;2022-11-20T14:10:23;100093.88;;;6.11;49.50
75086;BME280;63663;0.000;0.000;2022-11-20T14:12:49;100090.88;;;6.12;49.49
75086;BME280;63663;0.000;0.000;2022-11-20T14:15:24;100092.50;;;6.13;49.45
75086;BME280;63663;0.000;0.000;2022-11-20T14:17:50;100093.31;;;6.14;49.74
75086;BME280;63663;0.000;0.000;2022-11-20T14:20:15;100086.03;;;6.14;49.55
75086;BME280;63663;0.000;0.000;2022-11-20T14:22:47;100091.19;;;6.16;49.59
75086;BME280;63663;0.000;0.000;2022-11-20T14:27:42;100076.63;;;6.17;49.71
75086;BME280;63663;0.000;0.000;2022-11-20T14:30:14;100082.34;;;6.21;49.52
75086;BME280;63663;0.000;0.000;2022-11-20T14:32:41;100072.59;;;6.20;49.70
75086;BME280;63663;0.000;0.000;2022-11-20T14:35:07;100068.81;;;6.21;49.61